Time;durP1;ratioP1;P1;durP2;ratioP2;P2;SDS_P1;SDS_P2;PMS_P1;PMS_P2;Temp;Humidity;BMP_temperature;BMP_pressure;BME280_temperature;BME280_humidity;BME280_pressure;Samples;Min_cycle;Max_cycle;Signal;HPM_P1;HPM_P2
2021/09/27 00:01:15;;;;;;;40.28;17.15;;;;;;;12.53;100.00;94106.13;5133570;28;20200;-79
2021/09/27 00:03:42;;;;;;;39.00;17.50;;;;;;;12.50;100.00;94111.75;5133346;27;20200;-79
2021/09/27 00:06:10;;;;;;;44.25;18.40;;;;;;;12.43;100.00;94110.97;5132941;28;20220;-79
2021/09/27 00:08:37;;;;;;;42.35;17.58;;;;;;;12.34;100.00;94113.00;5133595;27;20197;-79
2021/09/27 00:11:06;;;;;;;35.35;16.55;;;;;;;12.27;100.00;94106.16;5133656;28;20205;-79
2021/09/27 00:13:35;;;;;;;38.03;17.20;;;;;;;12.19;100.00;94110.59;5133803;27;20203;-80
2021/09/27 00:16:04;;;;;;;43.95;19.17;;;;;;;12.15;100.00;94109.38;5137924;27;20211;-79
2021/09/27 00:18:32;;;;;;;43.20;17.52;;;;;;;12.20;100.00;94112.19;5137846;27;20196;-78
2021/09/27 00:21:01;;;;;;;41.70;17.17;;;;;;;12.19;100.00;94110.59;5137804;27;20200;-78
2021/09/27 00:23:31;;;;;;;44.67;18.00;;;;;;;12.22;100.00;94111.97;5137509;27;20208;-79
2021/09/27 00:25:58;;;;;;;42.10;17.33;;;;;;;12.24;100.00;94106.56;5137247;27;20235;-79
2021/09/27 00:28:25;;;;;;;49.63;19.05;;;;;;;12.33;100.00;94107.97;5116653;28;20201;-79
2021/09/27 00:30:52;;;;;;;44.40;18.80;;;;;;;12.36;100.00;94107.56;5116850;28;20655;-79
2021/09/27 00:33:21;;;;;;;38.58;17.23;;;;;;;12.32;100.00;94104.56;5116921;28;20200;-79
2021/09/27 00:35:50;;;;;;;38.75;17.08;;;;;;;12.26;100.00;94107.97;5116182;28;20197;-79
2021/09/27 00:38:17;;;;;;;42.80;17.80;;;;;;;12.27;100.00;94108.75;5116705;28;20686;-78
2021/09/27 00:40:48;;;;;;;37.38;15.90;;;;;;;12.21;100.00;94105.94;5116605;28;20212;-80
2021/09/27 00:43:15;;;;;;;39.28;15.60;;;;;;;12.16;100.00;94102.34;5116944;28;20555;-79
2021/09/27 00:45:45;;;;;;;37.55;16.98;;;;;;;12.10;100.00;94103.94;5116624;28;20200;-79
2021/09/27 00:48:12;;;;;;;42.33;16.13;;;;;;;12.08;100.00;94094.69;5116717;28;20206;-79
2021/09/27 00:50:42;;;;;;;43.20;16.35;;;;;;;12.05;100.00;94093.28;5116403;28;20205;-78
2021/09/27 00:53:16;;;;;;;36.90;15.32;;;;;;;12.06;100.00;94094.06;5116482;28;20201;-79
2021/09/27 00:55:43;;;;;;;42.17;16.42;;;;;;;12.07;100.00;94095.69;5115257;28;20201;-79
2021/09/27 00:58:10;;;;;;;33.85;14.13;;;;;;;11.94;100.00;94091.25;5115428;28;20644;-79
2021/09/27 01:00:36;;;;;;;33.40;14.55;;;;;;;11.87;100.00;94091.22;5116252;28;20555;-79
2021/09/27 01:03:03;;;;;;;36.53;14.68;;;;;;;11.79;100.00;94094.84;5116231;28;20201;-79
2021/09/27 01:05:30;;;;;;;34.55;14.60;;;;;;;11.73;100.00;94087.78;5116221;28;20197;-80
2021/09/27 01:08:06;;;;;;;33.25;15.25;;;;;;;11.68;100.00;94090.19;5116018;28;20225;-80
2021/09/27 01:10:53;;;;;;;25.47;13.00;;;;;;;11.42;100.00;94078.69;5116286;28;20230;-80
2021/09/27 01:13:35;;;;;;;32.40;14.57;;;;;;;11.43;100.00;94080.28;5116091;28;20674;-79
2021/09/27 01:16:11;;;;;;;32.08;14.65;;;;;;;11.39;100.00;94080.88;5116007;28;20205;-79
2021/09/27 01:18:50;;;;;;;37.83;14.13;;;;;;;11.26;100.00;94082.47;5116241;28;20201;-79
2021/09/27 01:21:33;;;;;;;34.70;15.20;;;;;;;11.33;100.00;94077.25;5125251;27;20200;-79
2021/09/27 01:24:27;;;;;;;40.83;15.10;;;;;;;11.28;100.00;94074.44;5136582;27;20197;-79
2021/09/27 01:27:29;;;;;;;40.33;14.20;;;;;;;11.22;100.00;94080.44;5135193;27;20259;-79
2021/09/27 01:30:27;;;;;;;41.90;15.03;;;;;;;11.01;100.00;94084.00;5136484;27;20249;-79
2021/09/27 01:32:57;;;;;;;36.37;13.97;;;;;;;10.99;100.00;94083.38;5136253;27;20196;-79
2021/09/27 01:35:31;;;;;;;38.37;14.87;;;;;;;11.00;100.00;94072.72;5136428;27;20196;-79
2021/09/27 01:38:14;;;;;;;52.53;16.57;;;;;;;11.18;100.00;94072.19;5136359;27;20199;-79
2021/09/27 01:40:53;;;;;;;45.38;15.73;;;;;;;11.08;100.00;94071.75;5136170;27;20197;-79
2021/09/27 01:43:25;;;;;;;42.43;16.67;;;;;;;10.98;100.00;94074.72;5136085;27;20207;-79
2021/09/27 01:45:58;;;;;;;46.30;16.40;;;;;;;10.98;100.00;94071.31;5136158;27;20205;-79
2021/09/27 01:48:31;;;;;;;41.07;15.57;;;;;;;10.91;100.00;94076.53;5136053;27;20237;-78
2021/09/27 01:51:00;;;;;;;38.53;14.33;;;;;;;10.80;100.00;94074.47;5136032;27;20197;-79
2021/09/27 01:53:33;;;;;;;40.37;14.73;;;;;;;10.69;100.00;94071.41;5135837;27;20197;-78
2021/09/27 01:56:06;;;;;;;41.77;15.57;;;;;;;10.78;100.00;94061.59;5135692;27;20208;-79
2021/09/27 01:58:44;;;;;;;43.77;16.40;;;;;;;10.76;100.00;94062.78;5136169;27;20197;-78
2021/09/27 02:01:18;;;;;;;37.70;15.23;;;;;;;10.54;100.00;94065.47;5135776;27;20196;-78
2021/09/27 02:03:53;;;;;;;32.10;13.87;;;;;;;10.44;100.00;94062.41;5135231;27;20200;-78
2021/09/27 02:06:25;;;;;;;37.30;14.33;;;;;;;10.32;100.00;94062.16;5134818;27;20203;-79
2021/09/27 02:08:58;;;;;;;39.30;14.70;;;;;;;10.39;100.00;94052.53;5135568;27;20254;-80
2021/09/27 02:11:26;;;;;;;62.30;19.17;;;;;;;10.64;100.00;94058.13;5135656;27;20200;-79
2021/09/27 02:14:05;;;;;;;57.87;17.90;;;;;;;10.69;100.00;94057.53;5135583;27;20196;-79
2021/09/27 02:16:39;;;;;;;48.97;17.67;;;;;;;10.58;100.00;94056.28;5135377;27;20255;-79
2021/09/27 02:19:13;;;;;;;44.50;16.33;;;;;;;10.55;100.00;94062.69;5135425;27;20239;-79
2021/09/27 02:21:45;;;;;;;45.30;15.47;;;;;;;10.45;100.00;94062.22;5135294;27;20807;-79
2021/09/27 02:24:17;;;;;;;48.70;17.23;;;;;;;10.53;100.00;94061.28;5135428;27;20200;-79
2021/09/27 02:26:46;;;;;;;54.30;17.83;;;;;;;10.60;100.00;94054.28;5135041;27;20240;-79
2021/09/27 02:29:13;;;;;;;45.67;17.10;;;;;;;10.54;100.00;94049.81;5135131;27;20196;-79
2021/09/27 02:31:48;;;;;;;51.03;18.07;;;;;;;10.57;100.00;94054.66;5135244;27;20227;-79
2021/09/27 02:34:22;;;;;;;56.10;17.00;;;;;;;10.52;100.00;94068.31;5135239;27;20218;-78
2021/09/27 02:36:55;;;;;;;47.77;17.20;;;;;;;10.41;100.00;94068.84;5135155;27;20200;-79
2021/09/27 02:39:27;;;;;;;43.93;15.40;;;;;;;10.28;100.00;94066.91;5134949;27;20204;-79
2021/09/27 02:42:00;;;;;;;48.10;15.67;;;;;;;10.25;100.00;94067.28;5135013;27;20201;-79
2021/09/27 02:44:27;;;;;;;47.20;16.17;;;;;;;10.32;100.00;94062.94;5135043;27;20204;-79
2021/09/27 02:46:54;;;;;;;63.28;22.23;;;;;;;10.39;100.00;94067.41;5133992;27;20450;-79
2021/09/27 02:49:27;;;;;;;50.17;17.50;;;;;;;10.25;100.00;94067.28;5134798;27;20661;-79
2021/09/27 02:51:56;;;;;;;48.57;15.57;;;;;;;10.21;100.00;94071.31;5134894;27;20279;-79
2021/09/27 02:54:31;;;;;;;49.27;15.13;;;;;;;10.21;100.00;94076.50;5134609;27;20228;-79
2021/09/27 02:57:16;;;;;;;51.80;18.47;;;;;;;10.33;100.00;94071.59;5134851;27;20197;-79
2021/09/27 02:59:58;;;;;;;51.93;16.67;;;;;;;10.28;100.00;94072.13;5121410;27;20200;-79
2021/09/27 03:02:34;;;;;;;51.03;15.33;;;;;;;10.17;100.00;94075.28;5134689;27;20200;-80
2021/09/27 03:05:10;;;;;;;37.27;14.47;;;;;;;10.03;100.00;94078.81;5134833;27;20246;-79
2021/09/27 03:08:00;;;;;;;39.97;13.77;;;;;;;10.00;100.00;94077.34;5134612;27;20224;-79
2021/09/27 03:10:32;;;;;;;37.83;14.07;;;;;;;9.92;100.00;94075.69;5134400;27;20203;-79
2021/09/27 03:13:07;;;;;;;50.97;16.17;;;;;;;10.03;100.00;94074.38;5134343;27;20201;-79
2021/09/27 03:16:13;;;;;;;40.07;14.73;;;;;;;9.93;100.00;94074.69;5134340;27;20203;-78
2021/09/27 03:18:57;;;;;;;51.73;16.43;;;;;;;10.03;100.00;94070.97;5133911;27;20281;-78
2021/09/27 03:21:42;;;;;;;47.50;16.23;;;;;;;9.96;100.00;94069.13;5133807;27;20196;-80
2021/09/27 03:24:18;;;;;;;38.33;14.50;;;;;;;9.98;100.00;94067.13;5130724;27;20198;-79
2021/09/27 03:26:57;;;;;;;52.20;16.50;;;;;;;10.01;100.00;94065.94;5133826;27;20239;-78
2021/09/27 03:29:33;;;;;;;49.50;16.50;;;;;;;10.06;100.00;94067.97;5133721;27;20200;-78
2021/09/27 03:32:11;;;;;;;51.83;16.80;;;;;;;9.97;100.00;94062.88;5134429;27;20220;-78
2021/09/27 03:34:48;;;;;;;48.53;15.37;;;;;;;9.86;100.00;94062.59;5134256;27;20200;-78
2021/09/27 03:37:26;;;;;;;40.63;13.97;;;;;;;9.81;100.00;94065.78;5134272;27;20200;-78
2021/09/27 03:40:08;;;;;;;44.70;14.53;;;;;;;9.71;100.00;94065.28;5134006;27;20555;-78
2021/09/27 03:42:38;;;;;;;46.83;14.80;;;;;;;9.68;100.00;94066.47;5134229;27;20197;-78
2021/09/27 03:45:10;;;;;;;49.30;15.00;;;;;;;9.78;100.00;94069.56;5134103;27;20212;-78
2021/09/27 03:47:42;;;;;;;51.53;16.93;;;;;;;9.87;100.00;94065.00;5134040;28;20220;-77
2021/09/27 03:50:16;;;;;;;60.90;19.07;;;;;;;10.04;100.00;94064.75;5139562;27;20199;-78
2021/09/27 03:52:48;;;;;;;60.17;18.93;;;;;;;10.12;100.00;94064.59;5140767;27;20203;-78
2021/09/27 03:55:21;;;;;;;52.80;18.17;;;;;;;10.10;100.00;94058.78;5140821;27;20196;-78
2021/09/27 03:57:55;;;;;;;48.13;16.33;;;;;;;10.01;100.00;94055.50;5140959;27;20204;-78
2021/09/27 04:00:26;;;;;;;43.87;15.70;;;;;;;9.96;100.00;94056.06;5140745;27;20242;-78
2021/09/27 04:02:59;;;;;;;49.43;16.23;;;;;;;9.90;100.00;94059.44;5140576;27;20204;-78
2021/09/27 04:05:38;;;;;;;47.87;15.90;;;;;;;9.93;100.00;94053.03;5140643;27;20200;-78
2021/09/27 04:08:15;;;;;;;50.27;15.87;;;;;;;9.95;100.00;94056.25;5140798;27;20228;-79
2021/09/27 04:10:58;;;;;;;48.70;15.90;;;;;;;9.91;100.00;94060.22;5140700;27;20199;-78
2021/09/27 04:13:34;;;;;;;43.53;14.70;;;;;;;9.84;100.00;94054.97;5140550;27;20215;-78
2021/09/27 04:16:15;;;;;;;50.17;17.07;;;;;;;9.90;100.00;94048.19;5140646;27;20296;-78
2021/09/27 04:18:53;;;;;;;52.83;17.20;;;;;;;9.92;100.00;94040.97;5140733;27;20535;-78
2021/09/27 04:21:24;;;;;;;51.27;16.97;;;;;;;9.92;100.00;94047.00;5140541;27;20223;-78
2021/09/27 04:24:04;;;;;;;57.17;16.20;;;;;;;9.86;100.00;94050.38;5140405;27;20200;-77
2021/09/27 04:26:47;;;;;;;47.67;16.13;;;;;;;9.86;100.00;94053.00;5140416;27;20390;-78
2021/09/27 04:29:41;;;;;;;53.63;16.33;;;;;;;9.85;100.00;94050.56;5140532;27;20220;-78
2021/09/27 04:32:20;;;;;;;56.33;17.83;;;;;;;9.94;100.00;94050.25;5140362;27;20241;-78
2021/09/27 04:35:00;;;;;;;46.33;16.03;;;;;;;9.91;100.00;94049.78;5139337;27;20200;-78
2021/09/27 04:37:29;;;;;;;54.03;15.60;;;;;;;9.81;100.00;94055.38;5140465;27;20200;-77
2021/09/27 04:39:58;;;;;;;53.57;16.90;;;;;;;9.79;100.00;94046.91;5140218;27;20585;-78
2021/09/27 04:42:55;;;;;;;51.27;17.33;;;;;;;9.79;100.00;94041.69;5140321;27;20536;-77
2021/09/27 04:45:38;;;;;;;47.30;15.80;;;;;;;9.77;100.00;94044.47;5140424;27;20203;-77
2021/09/27 04:48:17;;;;;;;47.07;16.10;;;;;;;9.83;100.00;94042.94;5138563;27;20228;-78
2021/09/27 04:50:53;;;;;;;53.00;15.67;;;;;;;9.73;100.00;94043.25;5138951;27;20197;-78
2021/09/27 04:53:38;;;;;;;46.60;14.23;;;;;;;9.65;100.00;94046.00;5140719;27;20301;-77
2021/09/27 04:56:14;;;;;;;40.40;14.10;;;;;;;9.53;100.00;94037.88;5140303;27;20566;-78
2021/09/27 04:58:53;;;;;;;42.97;14.13;;;;;;;9.60;100.00;94043.16;5140403;27;20200;-78
2021/09/27 05:01:36;;;;;;;55.70;15.33;;;;;;;9.56;100.00;94040.09;5136469;27;20245;-78
2021/09/27 05:04:28;;;;;;;41.70;14.50;;;;;;;9.54;100.00;94057.75;5137233;27;20201;-78
2021/09/27 05:07:30;;;;;;;50.23;15.37;;;;;;;9.57;100.00;94052.13;5137072;27;20199;-78
2021/09/27 05:10:10;;;;;;;47.83;14.73;;;;;;;9.55;100.00;94051.53;5137015;27;20606;-78
2021/09/27 05:13:03;;;;;;;54.70;16.10;;;;;;;9.59;100.00;94047.56;5136895;27;20200;-78
2021/09/27 05:15:46;;;;;;;52.63;16.07;;;;;;;9.60;100.00;94056.97;5133132;27;20198;-78
2021/09/27 05:18:36;;;;;;;57.17;16.00;;;;;;;9.56;100.00;94055.75;5136468;27;20205;-78
2021/09/27 05:21:21;;;;;;;57.13;16.70;;;;;;;9.63;100.00;94051.38;5136584;27;20200;-78
2021/09/27 05:24:01;;;;;;;47.10;15.63;;;;;;;9.57;100.00;94046.91;5136396;27;20201;-79
2021/09/27 05:26:47;;;;;;;56.20;17.23;;;;;;;9.58;100.00;94045.94;5135662;27;20236;-78
2021/09/27 05:29:28;;;;;;;40.53;14.60;;;;;;;9.51;100.00;94058.13;5136273;27;20310;-79
2021/09/27 05:32:11;;;;;;;52.20;16.13;;;;;;;9.55;100.00;94061.94;5136241;27;20540;-78
2021/09/27 05:34:48;;;;;;;51.10;16.10;;;;;;;9.56;100.00;94063.56;5136225;27;20204;-79
2021/09/27 05:37:29;;;;;;;53.53;16.07;;;;;;;9.51;100.00;94058.13;5136020;27;20204;-79
2021/09/27 05:40:15;;;;;;;59.60;17.07;;;;;;;9.63;100.00;94058.41;5136042;27;20227;-78
2021/09/27 05:42:55;;;;;;;61.13;16.33;;;;;;;9.69;100.00;94062.88;5136092;27;20336;-78
2021/09/27 05:45:34;;;;;;;61.73;18.87;;;;;;;9.76;100.00;94057.72;5136362;27;20223;-78
2021/09/27 05:48:08;;;;;;;64.53;17.97;;;;;;;9.80;100.00;94059.75;5136284;27;20231;-79
2021/09/27 05:50:38;;;;;;;62.13;17.17;;;;;;;9.77;100.00;94059.31;5135533;27;20203;-79
2021/09/27 05:53:18;;;;;;;58.80;17.30;;;;;;;9.77;100.00;94056.72;5135983;27;20197;-78
2021/09/27 05:55:53;;;;;;;73.80;23.45;;;;;;;9.82;100.00;94068.22;5134568;27;20436;-78
2021/09/27 05:58:26;;;;;;;54.33;16.90;;;;;;;9.85;100.00;94063.59;5136080;27;20209;-78
2021/09/27 06:01:02;;;;;;;63.00;17.87;;;;;;;9.95;100.00;94064.88;5135830;27;20569;-78
2021/09/27 06:03:37;;;;;;;58.20;17.03;;;;;;;9.91;100.00;94068.88;5135865;27;20200;-78
2021/09/27 06:06:18;;;;;;;51.53;16.43;;;;;;;9.91;100.00;94066.28;5135962;27;20205;-78
2021/09/27 06:08:53;;;;;;;49.20;15.97;;;;;;;9.91;100.00;94075.88;5135808;27;20228;-78
2021/09/27 06:11:28;;;;;;;49.70;15.57;;;;;;;9.94;100.00;94070.28;5135593;27;20223;-78
2021/09/27 06:13:56;;;;;;;58.53;17.03;;;;;;;10.08;100.00;94072.00;5135564;27;20653;-78
2021/09/27 06:16:36;;;;;;;71.03;19.57;;;;;;;10.22;100.00;94066.88;5135498;27;20205;-78
2021/09/27 06:19:07;;;;;;;66.97;19.10;;;;;;;10.23;100.00;94064.09;5135638;27;20200;-78
2021/09/27 06:22:15;;;;;;;53.43;17.00;;;;;;;10.25;100.00;94061.28;5135432;27;20201;-79
2021/09/27 06:24:56;;;;;;;55.67;17.17;;;;;;;10.23;100.00;94058.88;5131714;27;20224;-78
2021/09/27 06:27:35;;;;;;;56.60;18.57;;;;;;;10.28;100.00;94056.47;5135030;27;20236;-79
2021/09/27 06:30:10;;;;;;;59.90;17.27;;;;;;;10.32;100.00;94055.13;5135298;27;20265;-79
2021/09/27 06:32:52;;;;;;;56.30;17.23;;;;;;;10.39;100.00;94056.97;5135285;27;20200;-79
2021/09/27 06:35:22;;;;;;;60.57;17.33;;;;;;;10.49;100.00;94057.44;5135302;27;20196;-79
2021/09/27 06:37:50;;;;;;;66.93;17.90;;;;;;;10.53;100.00;94049.03;5135303;27;20567;-78
2021/09/27 06:40:18;;;;;;;67.67;18.80;;;;;;;10.58;100.00;94051.06;5134931;27;20559;-78
2021/09/27 06:42:45;;;;;;;62.10;18.90;;;;;;;10.66;100.00;94058.72;5134980;27;20197;-79
2021/09/27 06:45:12;;;;;;;69.57;18.97;;;;;;;10.74;100.00;94055.13;5134988;27;20204;-79
2021/09/27 06:47:40;;;;;;;58.30;18.40;;;;;;;10.84;100.00;94045.16;5134884;27;20231;-78
2021/09/27 06:50:09;;;;;;;61.63;18.83;;;;;;;10.91;100.00;94042.56;5134946;27;20245;-79
2021/09/27 06:52:36;;;;;;;68.43;19.40;;;;;;;11.04;100.00;94036.56;5134610;27;20203;-79
2021/09/27 06:55:02;;;;;;;74.80;20.53;;;;;;;11.14;100.00;94036.19;5133688;27;20324;-79
2021/09/27 06:57:28;;;;;;;66.73;18.83;;;;;;;11.26;100.00;94037.25;5134523;27;20670;-78
2021/09/27 06:59:55;;;;;;;59.93;19.00;;;;;;;11.41;100.00;94037.06;5134645;27;20209;-78
2021/09/27 07:02:21;;;;;;;74.10;20.03;;;;;;;11.53;100.00;94038.06;5134710;27;20200;-79
2021/09/27 07:04:51;;;;;;;60.17;17.90;;;;;;;11.65;100.00;94033.84;5134570;27;20193;-78
2021/09/27 07:07:18;;;;;;;57.85;17.35;;;;;;;11.80;100.00;94038.88;5134587;27;20314;-78
2021/09/27 07:09:45;;;;;;;52.90;15.73;;;;;;;11.93;100.00;94032.88;5134282;27;20229;-78
2021/09/27 07:12:12;;;;;;;38.67;13.65;;;;;;;11.99;100.00;94041.72;5130889;27;20189;-78
2021/09/27 07:14:40;;;;;;;36.15;11.63;;;;;;;12.10;100.00;94033.28;5134245;27;20201;-79
2021/09/27 07:17:06;;;;;;;26.95;11.38;;;;;;;12.26;100.00;94034.66;5134593;27;20204;-78
2021/09/27 07:19:33;;;;;;;36.13;11.75;;;;;;;12.38;100.00;94033.03;5134372;27;20208;-78
2021/09/27 07:22:00;;;;;;;36.85;12.48;;;;;;;12.48;100.00;94035.22;5134334;27;20196;-78
2021/09/27 07:24:27;;;;;;;37.67;13.10;;;;;;;12.62;100.00;94035.97;5133561;27;20249;-79
2021/09/27 07:26:53;;;;;;;22.77;10.07;;;;;;;12.72;100.00;94048.66;5134154;27;20235;-79
2021/09/27 07:29:21;;;;;;;29.15;10.73;;;;;;;12.84;100.00;94043.56;5133936;27;20284;-78
2021/09/27 07:31:48;;;;;;;33.33;11.65;;;;;;;13.04;100.00;94043.47;5134069;27;20232;-78
2021/09/27 07:34:14;;;;;;;30.17;11.27;;;;;;;13.19;100.00;94038.78;5134252;27;20204;-79
2021/09/27 07:36:41;;;;;;;27.23;10.70;;;;;;;13.35;100.00;94032.25;5134119;27;20249;-79
2021/09/27 07:39:09;;;;;;;26.05;10.63;;;;;;;13.47;100.00;94038.47;5133954;27;20753;-78
2021/09/27 07:41:36;;;;;;;24.08;10.95;;;;;;;13.60;100.00;94042.00;5133888;27;20196;-79
2021/09/27 07:44:03;;;;;;;25.40;9.77;;;;;;;13.66;100.00;94038.53;5134183;27;20201;-79
2021/09/27 07:46:30;;;;;;;20.15;8.57;;;;;;;13.82;100.00;94040.63;5134022;27;20200;-78
2021/09/27 07:48:56;;;;;;;17.83;8.40;;;;;;;13.81;100.00;94027.72;5133964;28;20228;-77
2021/09/27 07:51:23;;;;;;;18.27;7.82;;;;;;;13.90;100.00;94041.38;5133831;28;20200;-77
2021/09/27 07:53:50;;;;;;;17.23;7.93;;;;;;;13.77;100.00;94044.91;5133982;28;20203;-79
2021/09/27 07:56:18;;;;;;;17.25;7.82;;;;;;;14.03;100.00;94036.03;5134021;28;20200;-79
2021/09/27 07:58:45;;;;;;;15.48;7.88;;;;;;;14.17;100.00;94045.41;5133950;28;20212;-79
2021/09/27 08:01:13;;;;;;;13.68;6.38;;;;;;;14.27;100.00;94047.50;5133817;28;20197;-77
2021/09/27 08:03:39;;;;;;;11.32;6.25;;;;;;;14.31;100.00;94053.16;5132573;27;20245;-79
2021/09/27 08:06:06;;;;;;;9.68;4.85;;;;;;;14.27;100.00;94049.34;5133748;28;20643;-78
2021/09/27 08:08:32;;;;;;;12.55;5.28;;;;;;;14.33;100.00;94057.16;5133062;28;20224;-76
2021/09/27 08:10:58;;;;;;;8.40;4.85;;;;;;;14.33;100.00;94046.66;5133595;28;20204;-76
2021/09/27 08:13:26;;;;;;;7.45;4.85;;;;;;;14.47;100.00;94042.09;5133542;28;20201;-76
2021/09/27 08:15:55;;;;;;;6.53;3.97;;;;;;;14.56;100.00;94046.03;5133727;28;20200;-76
2021/09/27 08:18:22;;;;;;;7.75;3.88;;;;;;;14.67;100.00;94049.81;5133568;28;20200;-76
2021/09/27 08:20:52;;;;;;;4.32;3.13;;;;;;;14.82;100.00;94040.72;5133591;28;20575;-76
2021/09/27 08:23:20;;;;;;;4.78;3.03;;;;;;;14.98;100.00;94040.94;5133590;28;20200;-76
2021/09/27 08:25:47;;;;;;;3.30;2.47;;;;;;;15.06;100.00;94050.34;5133533;28;20281;-76
2021/09/27 08:28:16;;;;;;;3.53;2.67;;;;;;;15.09;100.00;94047.28;5133604;28;20201;-77
2021/09/27 08:30:48;;;;;;;4.43;2.45;;;;;;;15.23;100.00;94049.75;5133713;28;20205;-77
2021/09/27 08:33:15;;;;;;;2.88;2.15;;;;;;;15.38;100.00;94055.41;5133592;28;20245;-76
2021/09/27 08:35:42;;;;;;;3.53;2.28;;;;;;;15.46;100.00;94044.56;5135396;27;20201;-76
2021/09/27 08:38:15;;;;;;;3.70;2.45;;;;;;;15.51;100.00;94051.78;5137545;27;20197;-76
2021/09/27 08:41:02;;;;;;;7.80;2.42;;;;;;;15.58;100.00;94046.44;5137312;27;20201;-76
2021/09/27 08:43:40;;;;;;;3.42;2.45;;;;;;;15.73;100.00;94060.78;5096361;28;20194;-77
2021/09/27 08:46:12;;;;;;;5.40;3.25;;;;;;;15.84;100.00;94050.56;5095980;28;20201;-76
2021/09/27 08:48:44;;;;;;;4.20;2.42;;;;;;;16.03;100.00;94053.88;5109311;28;20726;-78
2021/09/27 08:51:10;;;;;;;2.63;2.20;;;;;;;15.87;100.00;94055.34;5116647;28;20197;-74
2021/09/27 08:53:40;;;;;;;3.22;2.30;;;;;;;15.94;100.00;94047.34;5116627;28;20293;-74
2021/09/27 08:56:17;;;;;;;2.55;1.92;;;;;;;15.99;100.00;94052.75;5116188;28;20193;-74
2021/09/27 08:58:52;;;;;;;3.22;2.35;;;;;;;16.09;100.00;94050.34;5114976;28;20220;-75
2021/09/27 09:01:25;;;;;;;3.88;2.00;;;;;;;16.22;100.00;94041.41;5115966;28;20197;-77
2021/09/27 09:04:02;;;;;;;3.72;1.88;;;;;;;16.25;100.00;94047.06;5116180;28;20504;-76
2021/09/27 09:06:33;;;;;;;2.70;1.98;;;;;;;16.27;100.00;94055.53;5104686;28;20196;-75
2021/09/27 09:09:06;;;;;;;3.25;1.92;;;;;;;16.41;100.00;94050.81;5095410;28;20236;-75
2021/09/27 09:11:38;;;;;;;4.20;1.90;;;;;;;16.53;100.00;94048.16;5095899;28;20606;-75
2021/09/27 09:14:11;;;;;;;3.13;1.92;;;;;;;16.67;100.00;94043.47;5095838;28;20660;-75
2021/09/27 09:16:40;;;;;;;2.65;2.00;;;;;;;16.84;100.00;94040.91;5107844;27;20267;-76
2021/09/27 09:19:12;;;;;;;3.85;1.60;;;;;;;16.95;100.00;94044.59;5136704;27;20193;-75
2021/09/27 09:21:43;;;;;;;3.67;2.10;;;;;;;17.22;100.00;94049.31;5136380;27;20536;-76
2021/09/27 09:24:13;;;;;;;3.83;2.15;;;;;;;17.26;100.00;94045.19;5136414;27;20668;-76
2021/09/27 09:26:44;;;;;;;4.50;2.35;;;;;;;17.33;100.00;94046.63;5135323;27;20707;-75
2021/09/27 09:29:12;;;;;;;4.43;1.83;;;;;;;17.57;100.00;94046.56;5135993;27;20221;-74
2021/09/27 09:31:45;;;;;;;3.53;2.20;;;;;;;17.67;100.00;94046.75;5136387;27;20236;-75
2021/09/27 09:34:27;;;;;;;3.28;1.80;;;;;;;17.62;100.00;94054.56;5136165;27;20201;-74
2021/09/27 09:36:56;;;;;;;2.58;2.00;;;;;;;17.78;100.00;94045.06;5135658;27;20673;-77
2021/09/27 09:39:26;;;;;;;2.65;1.98;;;;;;;17.89;100.00;94048.72;5135987;27;20203;-75
2021/09/27 09:41:55;;;;;;;7.65;2.10;;;;;;;17.84;100.00;94045.97;5136124;27;20201;-75
2021/09/27 09:44:24;;;;;;;3.40;1.80;;;;;;;17.82;100.00;94045.38;5135763;27;20197;-75
2021/09/27 09:47:00;;;;;;;3.35;1.77;;;;;;;18.07;100.00;94040.56;5135365;27;20208;-75
2021/09/27 09:49:29;;;;;;;3.10;1.75;;;;;;;18.19;100.00;94034.41;5134025;27;20223;-75
2021/09/27 09:52:01;;;;;;;5.15;1.90;;;;;;;18.33;100.00;94034.84;5133725;27;20225;-75
2021/09/27 09:54:29;;;;;;;2.53;1.73;;;;;;;18.30;96.27;94044.06;5134320;27;20208;-75
2021/09/27 09:57:06;;;;;;;2.25;1.70;;;;;;;18.49;98.86;94037.47;5134916;27;20201;-75
2021/09/27 09:59:37;;;;;;;4.55;1.33;;;;;;;18.80;97.62;94037.09;5135906;27;20207;-75
2021/09/27 10:02:16;;;;;;;2.70;1.90;;;;;;;19.09;91.82;94037.75;5135896;27;20221;-75
2021/09/27 10:04:47;;;;;;;2.20;1.65;;;;;;;19.50;94.19;94037.38;5135598;27;20204;-75
2021/09/27 10:07:16;;;;;;;5.18;1.98;;;;;;;19.62;96.47;94042.53;5135635;27;20211;-75
2021/09/27 10:09:56;;;;;;;3.42;1.80;;;;;;;19.19;86.89;94043.16;5135365;27;20239;-75
2021/09/27 10:12:45;;;;;;;2.00;1.50;;;;;;;19.02;90.05;94039.78;5135301;27;20208;-75
2021/09/27 10:15:16;;;;;;;2.35;1.73;;;;;;;19.33;94.04;94046.22;5132852;27;20234;-74
2021/09/27 10:17:44;;;;;;;1.98;1.45;;;;;;;19.49;93.23;94044.53;5135457;27;20540;-76
2021/09/27 10:20:17;;;;;;;2.38;1.30;;;;;;;19.80;82.55;94044.06;5135137;27;20193;-75
2021/09/27 10:22:52;;;;;;;2.15;1.63;;;;;;;20.17;83.03;94043.31;5135261;27;20204;-76
2021/09/27 10:25:29;;;;;;;1.92;1.23;;;;;;;20.19;82.16;94049.97;5135288;27;20273;-75
2021/09/27 10:27:58;;;;;;;3.60;1.40;;;;;;;20.20;82.24;94038.31;5135278;27;20201;-75
2021/09/27 10:30:30;;;;;;;1.45;1.00;;;;;;;20.20;79.16;94051.59;5135086;27;20315;-76
2021/09/27 10:33:02;;;;;;;2.08;1.00;;;;;;;19.29;80.44;94052.28;5135357;27;20204;-74
2021/09/27 10:35:35;;;;;;;1.35;1.08;;;;;;;19.26;82.54;94056.22;5135338;27;20249;-75
2021/09/27 10:38:08;;;;;;;1.73;1.20;;;;;;;19.14;83.32;94053.69;5135214;27;20528;-75
2021/09/27 10:40:35;;;;;;;2.42;1.45;;;;;;;18.67;80.42;94062.84;5134962;27;20651;-75
2021/09/27 10:43:03;;;;;;;2.05;1.48;;;;;;;18.65;86.92;94050.91;5134883;27;20577;-75
2021/09/27 10:45:31;;;;;;;2.67;1.40;;;;;;;18.80;83.52;94047.66;5134702;27;20201;-75
2021/09/27 10:48:00;;;;;;;2.50;1.40;;;;;;;18.86;84.71;94044.09;5135031;27;20204;-75
2021/09/27 10:50:31;;;;;;;3.13;1.80;;;;;;;18.91;84.11;94043.34;5134716;27;20408;-75
2021/09/27 10:53:05;;;;;;;2.25;1.35;;;;;;;19.08;86.69;94044.06;5134846;27;20200;-75
2021/09/27 10:55:47;;;;;;;8.23;1.80;;;;;;;19.23;82.15;94041.63;5134669;27;20239;-76
2021/09/27 10:58:30;;;;;;;3.78;1.60;;;;;;;19.26;83.10;94040.31;5134063;27;20200;-76
2021/09/27 11:00:57;;;;;;;2.35;1.70;;;;;;;19.47;86.73;94030.75;5133509;27;20205;-75
2021/09/27 11:03:31;;;;;;;2.20;1.67;;;;;;;19.87;84.67;94032.22;5132840;27;20200;-76
2021/09/27 11:06:02;;;;;;;1.95;1.50;;;;;;;20.09;79.40;94044.59;5133712;27;20253;-75
2021/09/27 11:08:48;;;;;;;2.47;1.67;;;;;;;20.19;76.39;94038.56;5130826;27;20724;-75
2021/09/27 11:11:21;;;;;;;1.63;1.25;;;;;;;20.22;73.58;94036.22;5134415;27;20228;-75
2021/09/27 11:13:48;;;;;;;2.17;1.45;;;;;;;20.22;79.50;94028.25;5134439;27;20200;-75
2021/09/27 11:16:24;;;;;;;2.20;1.50;;;;;;;19.88;72.31;94031.16;5134163;27;20261;-75
2021/09/27 11:18:59;;;;;;;2.42;1.60;;;;;;;20.15;78.77;94019.69;5134501;27;20201;-76
2021/09/27 11:21:46;;;;;;;2.28;1.67;;;;;;;20.58;76.72;94023.16;5134009;27;20584;-75
2021/09/27 11:25:05;;;;;;;2.30;1.38;;;;;;;20.72;80.48;94022.75;5134260;27;20200;-75
2021/09/27 11:27:34;;;;;;;2.38;1.52;;;;;;;20.61;75.88;94017.34;5100494;27;20246;-74
2021/09/27 11:30:35;;;;;;;2.10;1.50;;;;;;;20.94;74.84;94014.66;5115207;27;20221;-76
2021/09/27 11:33:03;;;;;;;1.88;1.52;;;;;;;21.50;71.21;94008.72;5113327;28;20200;-76
2021/09/27 11:35:40;;;;;;;2.55;1.70;;;;;;;21.55;70.62;94014.88;5113609;28;20201;-76
2021/09/27 11:38:19;;;;;;;1.73;1.30;;;;;;;20.90;68.44;94014.38;5113159;28;20258;-76
2021/09/27 11:40:52;;;;;;;2.45;1.90;;;;;;;21.38;70.04;94015.06;5113604;28;20219;-75
2021/09/27 11:43:26;;;;;;;2.25;1.65;;;;;;;21.84;70.55;94014.38;5113266;28;20284;-77
2021/09/27 11:45:56;;;;;;;1.65;1.38;;;;;;;21.01;67.37;94025.81;5113569;28;20579;-75
2021/09/27 11:48:47;;;;;;;2.15;1.42;;;;;;;20.86;82.03;94018.59;5113334;28;20201;-76